sensor_id;sensor_type;location;lat;lon;timestamp;temperature;humidity
44647;DHT22;56315;-33.902;151.160;2023-06-26T00:01:38;26.90;73.70
44647;DHT22;56315;-33.902;151.160;2023-06-26T00:04:06;26.40;76.00
44647;DHT22;56315;-33.902;151.160;2023-06-26T00:06:36;26.30;75.30
44647;DHT22;56315;-33.902;151.160;2023-06-26T00:09:04;24.50;75.70
44647;DHT22;56315;-33.902;151.160;2023-06-26T00:11:32;26.50;75.50
44647;DHT22;56315;-33.902;151.160;2023-06-26T00:14:02;26.50;74.50
44647;DHT22;56315;-33.902;151.160;2023-06-26T00:16:29;26.20;75.00
44647;DHT22;56315;-33.902;151.160;2023-06-26T00:18:58;27.70;73.40
44647;DHT22;56315;-33.902;151.160;2023-06-26T00:21:29;27.20;74.00
44647;DHT22;56315;-33.902;151.160;2023-06-26T00:23:56;26.70;74.00
44647;DHT22;56315;-33.902;151.160;2023-06-26T00:26:23;27.30;72.70
44647;DHT22;56315;-33.902;151.160;2023-06-26T00:28:51;27.10;73.30
44647;DHT22;56315;-33.902;151.160;2023-06-26T00:31:18;27.20;73.30
44647;DHT22;56315;-33.902;151.160;2023-06-26T00:33:45;26.70;72.30
44647;DHT22;56315;-33.902;151.160;2023-06-26T00:36:13;26.20;73.50
44647;DHT22;56315;-33.902;151.160;2023-06-26T00:38:41;26.50;72.50
44647;DHT22;56315;-33.902;151.160;2023-06-26T00:41:08;26.80;72.40
44647;DHT22;56315;-33.902;151.160;2023-06-26T00:43:39;27.50;71.20
44647;DHT22;56315;-33.902;151.160;2023-06-26T00:46:10;27.20;71.80
44647;DHT22;56315;-33.902;151.160;2023-06-26T00:48:38;26.80;72.80
44647;DHT22;56315;-33.902;151.160;2023-06-26T00:51:06;26.70;71.00
44647;DHT22;56315;-33.902;151.160;2023-06-26T00:53:33;26.00;71.90
44647;DHT22;56315;-33.902;151.160;2023-06-26T00:56:02;26.30;73.80
44647;DHT22;56315;-33.902;151.160;2023-06-26T00:58:30;27.20;72.20
44647;DHT22;56315;-33.902;151.160;2023-06-26T01:00:58;27.20;71.20
44647;DHT22;56315;-33.902;151.160;2023-06-26T01:03:27;26.10;73.30
44647;DHT22;56315;-33.902;151.160;2023-06-26T01:05:56;26.90;72.40
44647;DHT22;56315;-33.902;151.160;2023-06-26T01:08:26;26.50;71.10
44647;DHT22;56315;-33.902;151.160;2023-06-26T01:10:53;26.80;72.50
44647;DHT22;56315;-33.902;151.160;2023-06-26T01:13:21;27.30;71.40
44647;DHT22;56315;-33.902;151.160;2023-06-26T01:15:49;27.20;71.20
44647;DHT22;56315;-33.902;151.160;2023-06-26T01:18:17;27.30;72.10
44647;DHT22;56315;-33.902;151.160;2023-06-26T01:20:45;27.10;72.00
44647;DHT22;56315;-33.902;151.160;2023-06-26T01:28:23;28.60;69.90
44647;DHT22;56315;-33.902;151.160;2023-06-26T01:30:52;28.60;70.30
44647;DHT22;56315;-33.902;151.160;2023-06-26T01:33:19;28.20;69.60
44647;DHT22;56315;-33.902;151.160;2023-06-26T01:35:47;27.30;70.00
44647;DHT22;56315;-33.902;151.160;2023-06-26T01:38:19;28.00;69.90
44647;DHT22;56315;-33.902;151.160;2023-06-26T01:40:47;27.60;70.40
44647;DHT22;56315;-33.902;151.160;2023-06-26T01:51:30;28.00;69.60
44647;DHT22;56315;-33.902;151.160;2023-06-26T01:53:57;28.00;69.10
44647;DHT22;56315;-33.902;151.160;2023-06-26T01:56:25;28.20;70.30
44647;DHT22;56315;-33.902;151.160;2023-06-26T01:58:54;28.90;69.80
44647;DHT22;56315;-33.902;151.160;2023-06-26T02:01:24;28.30;69.10
44647;DHT22;56315;-33.902;151.160;2023-06-26T02:03:52;28.50;68.70
44647;DHT22;56315;-33.902;151.160;2023-06-26T02:06:19;27.90;69.20
44647;DHT22;56315;-33.902;151.160;2023-06-26T02:08:46;27.30;70.00
44647;DHT22;56315;-33.902;151.160;2023-06-26T02:11:14;27.20;70.10
44647;DHT22;56315;-33.902;151.160;2023-06-26T02:13:41;27.30;68.60
44647;DHT22;56315;-33.902;151.160;2023-06-26T02:16:09;26.90;70.10
44647;DHT22;56315;-33.902;151.160;2023-06-26T02:18:36;27.30;70.30
44647;DHT22;56315;-33.902;151.160;2023-06-26T02:21:05;27.10;69.80
44647;DHT22;56315;-33.902;151.160;2023-06-26T02:23:34;27.20;69.10
44647;DHT22;56315;-33.902;151.160;2023-06-26T02:26:01;27.70;68.90
44647;DHT22;56315;-33.902;151.160;2023-06-26T02:28:28;27.20;69.30
44647;DHT22;56315;-33.902;151.160;2023-06-26T02:30:57;25.60;70.80
44647;DHT22;56315;-33.902;151.160;2023-06-26T02:33:24;26.50;70.50
44647;DHT22;56315;-33.902;151.160;2023-06-26T02:35:52;25.50;70.20
44647;DHT22;56315;-33.902;151.160;2023-06-26T02:38:19;26.00;70.80
44647;DHT22;56315;-33.902;151.160;2023-06-26T02:40:46;26.30;69.70
44647;DHT22;56315;-33.902;151.160;2023-06-26T02:43:13;26.90;70.20
44647;DHT22;56315;-33.902;151.160;2023-06-26T02:45:41;27.70;69.70
44647;DHT22;56315;-33.902;151.160;2023-06-26T02:48:08;27.90;69.50
44647;DHT22;56315;-33.902;151.160;2023-06-26T02:50:35;26.00;71.00
44647;DHT22;56315;-33.902;151.160;2023-06-26T02:53:02;27.10;69.50
44647;DHT22;56315;-33.902;151.160;2023-06-26T02:55:30;28.70;68.60
44647;DHT22;56315;-33.902;151.160;2023-06-26T02:57:57;28.50;69.10
44647;DHT22;56315;-33.902;151.160;2023-06-26T03:00:24;28.00;69.10
44647;DHT22;56315;-33.902;151.160;2023-06-26T03:02:52;26.40;69.90
44647;DHT22;56315;-33.902;151.160;2023-06-26T03:05:19;27.10;70.80
44647;DHT22;56315;-33.902;151.160;2023-06-26T03:07:46;26.10;69.40
44647;DHT22;56315;-33.902;151.160;2023-06-26T03:10:14;26.40;69.30
44647;DHT22;56315;-33.902;151.160;2023-06-26T03:12:41;26.40;69.80
44647;DHT22;56315;-33.902;151.160;2023-06-26T03:15:09;27.40;68.60
44647;DHT22;56315;-33.902;151.160;2023-06-26T03:17:38;27.80;68.60
44647;DHT22;56315;-33.902;151.160;2023-06-26T03:20:07;27.40;68.50
44647;DHT22;56315;-33.902;151.160;2023-06-26T03:22:35;27.50;68.80
44647;DHT22;56315;-33.902;151.160;2023-06-26T03:25:03;26.40;68.80
44647;DHT22;56315;-33.902;151.160;2023-06-26T03:27:32;25.60;70.10
44647;DHT22;56315;-33.902;151.160;2023-06-26T03:29:59;25.60;69.40
44647;DHT22;56315;-33.902;151.160;2023-06-26T03:32:26;26.50;69.90
44647;DHT22;56315;-33.902;151.160;2023-06-26T03:34:54;25.80;69.70
44647;DHT22;56315;-33.902;151.160;2023-06-26T03:37:21;25.70;69.40
44647;DHT22;56315;-33.902;151.160;2023-06-26T03:39:48;26.00;69.90
44647;DHT22;56315;-33.902;151.160;2023-06-26T03:42:16;26.20;69.80
44647;DHT22;56315;-33.902;151.160;2023-06-26T03:44:43;26.90;68.70
44647;DHT22;56315;-33.902;151.160;2023-06-26T03:47:11;26.50;69.50
44647;DHT22;56315;-33.902;151.160;2023-06-26T03:49:38;26.10;68.80
44647;DHT22;56315;-33.902;151.160;2023-06-26T03:52:07;26.50;69.00
44647;DHT22;56315;-33.902;151.160;2023-06-26T03:54:35;25.30;69.30
44647;DHT22;56315;-33.902;151.160;2023-06-26T03:57:03;25.80;69.20
44647;DHT22;56315;-33.902;151.160;2023-06-26T03:59:30;25.60;69.20
44647;DHT22;56315;-33.902;151.160;2023-06-26T04:01:57;25.60;68.90
44647;DHT22;56315;-33.902;151.160;2023-06-26T04:04:25;25.50;68.80
44647;DHT22;56315;-33.902;151.160;2023-06-26T04:06:52;25.70;68.90
44647;DHT22;56315;-33.902;151.160;2023-06-26T04:09:20;25.20;69.40
44647;DHT22;56315;-33.902;151.160;2023-06-26T04:11:47;24.70;69.40
44647;DHT22;56315;-33.902;151.160;2023-06-26T04:14:14;24.60;69.90
44647;DHT22;56315;-33.902;151.160;2023-06-26T04:16:41;23.60;71.30
44647;DHT22;56315;-33.902;151.160;2023-06-26T04:19:09;21.70;74.30
44647;DHT22;56315;-33.902;151.160;2023-06-26T04:21:36;20.70;75.90
44647;DHT22;56315;-33.902;151.160;2023-06-26T04:24:04;20.10;76.50
44647;DHT22;56315;-33.902;151.160;2023-06-26T04:26:31;20.00;76.80
44647;DHT22;56315;-33.902;151.160;2023-06-26T04:28:59;19.70;77.40
44647;DHT22;56315;-33.902;151.160;2023-06-26T04:31:27;19.50;77.80
44647;DHT22;56315;-33.902;151.160;2023-06-26T04:33:54;19.40;77.70
44647;DHT22;56315;-33.902;151.160;2023-06-26T04:36:22;19.30;78.60
44647;DHT22;56315;-33.902;151.160;2023-06-26T04:38:49;19.30;78.00
44647;DHT22;56315;-33.902;151.160;2023-06-26T04:41:16;19.20;78.30
44647;DHT22;56315;-33.902;151.160;2023-06-26T04:43:44;19.10;78.20
44647;DHT22;56315;-33.902;151.160;2023-06-26T04:46:11;19.10;78.40
44647;DHT22;56315;-33.902;151.160;2023-06-26T04:48:38;19.00;78.00
44647;DHT22;56315;-33.902;151.160;2023-06-26T04:51:06;18.70;78.10
44647;DHT22;56315;-33.902;151.160;2023-06-26T04:53:33;18.70;78.00
44647;DHT22;56315;-33.902;151.160;2023-06-26T04:56:00;18.50;78.30
44647;DHT22;56315;-33.902;151.160;2023-06-26T04:58:27;18.40;79.70
44647;DHT22;56315;-33.902;151.160;2023-06-26T05:00:55;18.30;79.80
44647;DHT22;56315;-33.902;151.160;2023-06-26T05:03:22;18.40;79.20
44647;DHT22;56315;-33.902;151.160;2023-06-26T05:05:49;18.30;79.60
44647;DHT22;56315;-33.902;151.160;2023-06-26T05:08:21;18.20;80.30
44647;DHT22;56315;-33.902;151.160;2023-06-26T05:10:49;18.10;79.90
44647;DHT22;56315;-33.902;151.160;2023-06-26T05:13:17;18.00;80.60
44647;DHT22;56315;-33.902;151.160;2023-06-26T05:15:46;18.00;80.70
44647;DHT22;56315;-33.902;151.160;2023-06-26T05:18:15;17.90;81.10
44647;DHT22;56315;-33.902;151.160;2023-06-26T05:20:43;17.90;80.90
44647;DHT22;56315;-33.902;151.160;2023-06-26T05:23:13;17.80;81.10
44647;DHT22;56315;-33.902;151.160;2023-06-26T05:25:43;17.70;81.00
44647;DHT22;56315;-33.902;151.160;2023-06-26T05:28:11;17.60;81.40
44647;DHT22;56315;-33.902;151.160;2023-06-26T05:30:39;17.60;81.60
44647;DHT22;56315;-33.902;151.160;2023-06-26T05:33:06;17.50;82.80
44647;DHT22;56315;-33.902;151.160;2023-06-26T05:35:37;17.40;82.20
44647;DHT22;56315;-33.902;151.160;2023-06-26T05:38:05;17.30;82.10
44647;DHT22;56315;-33.902;151.160;2023-06-26T05:40:36;17.30;82.40
44647;DHT22;56315;-33.902;151.160;2023-06-26T05:43:04;17.20;82.90
44647;DHT22;56315;-33.902;151.160;2023-06-26T05:45:32;17.10;83.00
44647;DHT22;56315;-33.902;151.160;2023-06-26T05:47:59;17.10;83.30
44647;DHT22;56315;-33.902;151.160;2023-06-26T05:50:27;17.10;83.60
44647;DHT22;56315;-33.902;151.160;2023-06-26T05:52:55;17.00;83.70
44647;DHT22;56315;-33.902;151.160;2023-06-26T05:55:23;17.00;83.60
44647;DHT22;56315;-33.902;151.160;2023-06-26T05:57:51;17.00;83.50
44647;DHT22;56315;-33.902;151.160;2023-06-26T06:00:19;16.80;83.90
44647;DHT22;56315;-33.902;151.160;2023-06-26T06:02:47;16.80;83.80
44647;DHT22;56315;-33.902;151.160;2023-06-26T06:05:14;16.80;84.20
44647;DHT22;56315;-33.902;151.160;2023-06-26T06:07:42;16.80;83.10
44647;DHT22;56315;-33.902;151.160;2023-06-26T06:10:09;16.70;82.80
44647;DHT22;56315;-33.902;151.160;2023-06-26T06:12:37;16.60;83.90
44647;DHT22;56315;-33.902;151.160;2023-06-26T06:15:06;16.50;82.60
44647;DHT22;56315;-33.902;151.160;2023-06-26T06:17:33;16.50;83.20
44647;DHT22;56315;-33.902;151.160;2023-06-26T06:20:00;16.30;83.70
44647;DHT22;56315;-33.902;151.160;2023-06-26T06:22:28;16.30;83.30
44647;DHT22;56315;-33.902;151.160;2023-06-26T06:24:55;16.20;83.30
44647;DHT22;56315;-33.902;151.160;2023-06-26T06:27:22;16.20;83.10
44647;DHT22;56315;-33.902;151.160;2023-06-26T06:29:50;16.20;84.20
44647;DHT22;56315;-33.902;151.160;2023-06-26T06:32:17;16.00;83.90
44647;DHT22;56315;-33.902;151.160;2023-06-26T06:34:45;15.90;84.20
44647;DHT22;56315;-33.902;151.160;2023-06-26T06:37:12;16.00;84.80
44647;DHT22;56315;-33.902;151.160;2023-06-26T06:39:39;16.10;83.70
44647;DHT22;56315;-33.902;151.160;2023-06-26T06:42:07;16.10;84.50
44647;DHT22;56315;-33.902;151.160;2023-06-26T06:44:34;15.90;85.30
44647;DHT22;56315;-33.902;151.160;2023-06-26T06:47:01;15.80;85.00
44647;DHT22;56315;-33.902;151.160;2023-06-26T06:49:29;15.80;85.30
44647;DHT22;56315;-33.902;151.160;2023-06-26T06:51:56;15.70;85.40
44647;DHT22;56315;-33.902;151.160;2023-06-26T06:54:26;15.60;85.50
44647;DHT22;56315;-33.902;151.160;2023-06-26T06:56:55;15.50;86.10
44647;DHT22;56315;-33.902;151.160;2023-06-26T06:59:22;15.40;85.90
44647;DHT22;56315;-33.902;151.160;2023-06-26T07:01:50;15.40;86.60
44647;DHT22;56315;-33.902;151.160;2023-06-26T07:04:17;15.40;86.40
44647;DHT22;56315;-33.902;151.160;2023-06-26T07:06:44;15.30;86.70
44647;DHT22;56315;-33.902;151.160;2023-06-26T07:09:12;15.20;87.10
44647;DHT22;56315;-33.902;151.160;2023-06-26T07:11:41;15.20;87.50
44647;DHT22;56315;-33.902;151.160;2023-06-26T07:14:08;15.20;87.20
44647;DHT22;56315;-33.902;151.160;2023-06-26T07:16:36;15.20;87.00
44647;DHT22;56315;-33.902;151.160;2023-06-26T07:19:03;15.10;86.70
44647;DHT22;56315;-33.902;151.160;2023-06-26T07:21:30;15.10;87.10
44647;DHT22;56315;-33.902;151.160;2023-06-26T07:23:58;15.20;86.70
44647;DHT22;56315;-33.902;151.160;2023-06-26T07:26:25;15.00;87.60
44647;DHT22;56315;-33.902;151.160;2023-06-26T07:28:53;14.90;87.10
44647;DHT22;56315;-33.902;151.160;2023-06-26T07:31:23;14.90;87.10
44647;DHT22;56315;-33.902;151.160;2023-06-26T07:33:50;15.00;87.10
44647;DHT22;56315;-33.902;151.160;2023-06-26T07:36:17;14.90;87.10
44647;DHT22;56315;-33.902;151.160;2023-06-26T07:38:45;14.90;87.10
44647;DHT22;56315;-33.902;151.160;2023-06-26T07:41:12;15.00;87.10
44647;DHT22;56315;-33.902;151.160;2023-06-26T07:43:39;15.00;86.80
44647;DHT22;56315;-33.902;151.160;2023-06-26T07:46:07;14.90;87.20
44647;DHT22;56315;-33.902;151.160;2023-06-26T07:48:34;14.80;87.80
44647;DHT22;56315;-33.902;151.160;2023-06-26T07:51:02;14.90;87.20
44647;DHT22;56315;-33.902;151.160;2023-06-26T07:53:29;14.90;87.10
44647;DHT22;56315;-33.902;151.160;2023-06-26T07:55:57;14.80;87.50
44647;DHT22;56315;-33.902;151.160;2023-06-26T07:58:24;14.80;87.70
44647;DHT22;56315;-33.902;151.160;2023-06-26T08:00:52;14.90;87.60
44647;DHT22;56315;-33.902;151.160;2023-06-26T08:03:20;14.90;87.90
44647;DHT22;56315;-33.902;151.160;2023-06-26T08:05:48;14.80;88.40
44647;DHT22;56315;-33.902;151.160;2023-06-26T08:08:15;14.70;88.50
44647;DHT22;56315;-33.902;151.160;2023-06-26T08:10:43;14.60;88.90
44647;DHT22;56315;-33.902;151.160;2023-06-26T08:13:10;14.70;88.30
44647;DHT22;56315;-33.902;151.160;2023-06-26T08:15:37;14.60;89.20
44647;DHT22;56315;-33.902;151.160;2023-06-26T08:18:06;14.70;88.80
44647;DHT22;56315;-33.902;151.160;2023-06-26T08:20:33;14.60;89.00
44647;DHT22;56315;-33.902;151.160;2023-06-26T08:23:04;14.50;89.30
44647;DHT22;56315;-33.902;151.160;2023-06-26T08:25:32;14.50;89.70
44647;DHT22;56315;-33.902;151.160;2023-06-26T08:28:00;14.50;89.60
44647;DHT22;56315;-33.902;151.160;2023-06-26T08:30:27;14.50;89.40
44647;DHT22;56315;-33.902;151.160;2023-06-26T08:32:55;14.40;90.00
44647;DHT22;56315;-33.902;151.160;2023-06-26T08:35:23;14.30;90.20
44647;DHT22;56315;-33.902;151.160;2023-06-26T08:37:50;14.30;90.20
44647;DHT22;56315;-33.902;151.160;2023-06-26T08:40:18;14.20;90.20
44647;DHT22;56315;-33.902;151.160;2023-06-26T08:42:46;14.30;90.40
44647;DHT22;56315;-33.902;151.160;2023-06-26T08:45:14;14.40;90.10
44647;DHT22;56315;-33.902;151.160;2023-06-26T08:47:42;14.40;90.10
44647;DHT22;56315;-33.902;151.160;2023-06-26T08:50:14;14.40;90.10
44647;DHT22;56315;-33.902;151.160;2023-06-26T08:55:20;14.20;90.60
44647;DHT22;56315;-33.902;151.160;2023-06-26T08:57:54;14.20;90.50
44647;DHT22;56315;-33.902;151.160;2023-06-26T09:00:21;14.30;90.40
44647;DHT22;56315;-33.902;151.160;2023-06-26T09:02:49;14.20;90.70
44647;DHT22;56315;-33.902;151.160;2023-06-26T09:05:17;14.10;90.70
44647;DHT22;56315;-33.902;151.160;2023-06-26T09:07:45;14.00;90.80
44647;DHT22;56315;-33.902;151.160;2023-06-26T09:10:13;14.00;91.10
44647;DHT22;56315;-33.902;151.160;2023-06-26T09:12:40;14.00;90.80
44647;DHT22;56315;-33.902;151.160;2023-06-26T09:15:08;14.00;90.90
44647;DHT22;56315;-33.902;151.160;2023-06-26T09:17:39;14.00;91.20
44647;DHT22;56315;-33.902;151.160;2023-06-26T09:20:10;13.90;91.30
44647;DHT22;56315;-33.902;151.160;2023-06-26T09:22:40;13.70;91.30
44647;DHT22;56315;-33.902;151.160;2023-06-26T09:25:08;13.60;91.80
44647;DHT22;56315;-33.902;151.160;2023-06-26T09:27:36;13.50;92.10
44647;DHT22;56315;-33.902;151.160;2023-06-26T09:30:04;13.40;92.50
44647;DHT22;56315;-33.902;151.160;2023-06-26T09:32:37;13.20;92.50
44647;DHT22;56315;-33.902;151.160;2023-06-26T09:35:04;13.30;92.60
44647;DHT22;56315;-33.902;151.160;2023-06-26T09:37:34;13.30;92.20
44647;DHT22;56315;-33.902;151.160;2023-06-26T09:40:01;13.30;92.40
44647;DHT22;56315;-33.902;151.160;2023-06-26T09:42:30;13.30;92.40
44647;DHT22;56315;-33.902;151.160;2023-06-26T09:44:57;13.30;92.70
44647;DHT22;56315;-33.902;151.160;2023-06-26T09:47:25;13.20;93.20
44647;DHT22;56315;-33.902;151.160;2023-06-26T09:49:53;13.40;93.00
44647;DHT22;56315;-33.902;151.160;2023-06-26T09:52:21;13.40;92.80
44647;DHT22;56315;-33.902;151.160;2023-06-26T09:54:48;13.40;92.80
44647;DHT22;56315;-33.902;151.160;2023-06-26T09:57:18;13.50;92.90
44647;DHT22;56315;-33.902;151.160;2023-06-26T09:59:46;13.50;93.10
44647;DHT22;56315;-33.902;151.160;2023-06-26T10:02:13;13.60;92.70
44647;DHT22;56315;-33.902;151.160;2023-06-26T10:04:40;13.70;92.90
44647;DHT22;56315;-33.902;151.160;2023-06-26T10:07:14;13.60;92.80
44647;DHT22;56315;-33.902;151.160;2023-06-26T10:09:47;13.60;93.00
44647;DHT22;56315;-33.902;151.160;2023-06-26T10:12:27;13.60;93.10
44647;DHT22;56315;-33.902;151.160;2023-06-26T10:14:57;13.60;93.10
44647;DHT22;56315;-33.902;151.160;2023-06-26T10:17:34;13.70;93.10
44647;DHT22;56315;-33.902;151.160;2023-06-26T10:20:03;13.70;93.10
44647;DHT22;56315;-33.902;151.160;2023-06-26T10:22:45;13.60;93.40
44647;DHT22;56315;-33.902;151.160;2023-06-26T10:25:18;13.60;93.70
44647;DHT22;56315;-33.902;151.160;2023-06-26T10:27:57;13.50;93.70
44647;DHT22;56315;-33.902;151.160;2023-06-26T10:30:29;13.40;93.90
44647;DHT22;56315;-33.902;151.160;2023-06-26T10:33:00;13.40;94.10
44647;DHT22;56315;-33.902;151.160;2023-06-26T10:35:29;13.30;94.00
44647;DHT22;56315;-33.902;151.160;2023-06-26T10:38:02;13.30;94.20
44647;DHT22;56315;-33.902;151.160;2023-06-26T10:40:48;13.20;94.50
44647;DHT22;56315;-33.902;151.160;2023-06-26T10:43:17;13.20;94.70
44647;DHT22;56315;-33.902;151.160;2023-06-26T10:45:46;13.10;94.80
44647;DHT22;56315;-33.902;151.160;2023-06-26T10:48:18;13.20;95.10
44647;DHT22;56315;-33.902;151.160;2023-06-26T10:50:49;13.00;95.50
44647;DHT22;56315;-33.902;151.160;2023-06-26T10:56:03;12.60;96.10
44647;DHT22;56315;-33.902;151.160;2023-06-26T10:58:31;12.50;96.70
44647;DHT22;56315;-33.902;151.160;2023-06-26T11:04:06;12.30;97.10
44647;DHT22;56315;-33.902;151.160;2023-06-26T11:06:35;12.20;97.60
44647;DHT22;56315;-33.902;151.160;2023-06-26T11:09:09;12.00;98.10
44647;DHT22;56315;-33.902;151.160;2023-06-26T11:14:22;11.90;98.70
44647;DHT22;56315;-33.902;151.160;2023-06-26T11:16:50;11.90;98.90
44647;DHT22;56315;-33.902;151.160;2023-06-26T11:19:18;11.80;99.10
44647;DHT22;56315;-33.902;151.160;2023-06-26T11:21:48;11.80;99.40
44647;DHT22;56315;-33.902;151.160;2023-06-26T11:24:16;11.60;99.70
44647;DHT22;56315;-33.902;151.160;2023-06-26T11:26:45;11.50;99.90
44647;DHT22;56315;-33.902;151.160;2023-06-26T11:29:13;11.50;99.90
44647;DHT22;56315;-33.902;151.160;2023-06-26T11:31:41;11.40;99.90
44647;DHT22;56315;-33.902;151.160;2023-06-26T11:34:11;11.20;99.90
44647;DHT22;56315;-33.902;151.160;2023-06-26T11:36:42;11.10;99.90
44647;DHT22;56315;-33.902;151.160;2023-06-26T11:39:14;11.30;99.90
44647;DHT22;56315;-33.902;151.160;2023-06-26T11:41:41;11.20;99.90
44647;DHT22;56315;-33.902;151.160;2023-06-26T11:44:09;11.10;99.90
44647;DHT22;56315;-33.902;151.160;2023-06-26T11:46:37;11.00;99.90
44647;DHT22;56315;-33.902;151.160;2023-06-26T11:49:08;11.00;99.90
44647;DHT22;56315;-33.902;151.160;2023-06-26T11:51:36;10.90;99.90
44647;DHT22;56315;-33.902;151.160;2023-06-26T11:54:04;10.80;99.90
44647;DHT22;56315;-33.902;151.160;2023-06-26T11:56:32;10.70;99.90
44647;DHT22;56315;-33.902;151.160;2023-06-26T11:59:00;10.70;99.90
44647;DHT22;56315;-33.902;151.160;2023-06-26T12:01:39;10.70;99.90
44647;DHT22;56315;-33.902;151.160;2023-06-26T12:04:09;10.60;99.90
44647;DHT22;56315;-33.902;151.160;2023-06-26T12:06:52;10.80;99.90
44647;DHT22;56315;-33.902;151.160;2023-06-26T12:09:23;10.90;99.90
44647;DHT22;56315;-33.902;151.160;2023-06-26T12:11:53;11.00;99.90
44647;DHT22;56315;-33.902;151.160;2023-06-26T12:14:23;11.00;99.90
44647;DHT22;56315;-33.902;151.160;2023-06-26T12:16:53;11.20;99.90
44647;DHT22;56315;-33.902;151.160;2023-06-26T12:19:25;11.20;99.90
44647;DHT22;56315;-33.902;151.160;2023-06-26T12:21:53;11.20;99.90
44647;DHT22;56315;-33.902;151.160;2023-06-26T12:24:23;11.30;99.90
44647;DHT22;56315;-33.902;151.160;2023-06-26T12:26:54;11.40;99.90
44647;DHT22;56315;-33.902;151.160;2023-06-26T12:29:34;11.40;99.90
44647;DHT22;56315;-33.902;151.160;2023-06-26T12:32:01;11.40;99.90
44647;DHT22;56315;-33.902;151.160;2023-06-26T12:34:34;11.40;99.90
44647;DHT22;56315;-33.902;151.160;2023-06-26T12:37:04;11.50;99.90
44647;DHT22;56315;-33.902;151.160;2023-06-26T12:42:28;11.90;99.90
44647;DHT22;56315;-33.902;151.160;2023-06-26T12:44:55;12.10;99.90
44647;DHT22;56315;-33.902;151.160;2023-06-26T12:47:28;12.20;99.90
44647;DHT22;56315;-33.902;151.160;2023-06-26T12:49:57;12.10;99.90
44647;DHT22;56315;-33.902;151.160;2023-06-26T12:52:25;12.30;99.90
44647;DHT22;56315;-33.902;151.160;2023-06-26T12:54:55;12.40;99.90
44647;DHT22;56315;-33.902;151.160;2023-06-26T12:57:24;12.70;99.90
44647;DHT22;56315;-33.902;151.160;2023-06-26T12:59:52;12.60;99.90
44647;DHT22;56315;-33.902;151.160;2023-06-26T13:02:19;12.50;99.90
44647;DHT22;56315;-33.902;151.160;2023-06-26T13:04:47;12.70;99.90
44647;DHT22;56315;-33.902;151.160;2023-06-26T13:07:14;12.70;99.90
44647;DHT22;56315;-33.902;151.160;2023-06-26T13:09:42;12.60;99.90
44647;DHT22;56315;-33.902;151.160;2023-06-26T13:12:12;12.50;99.90
44647;DHT22;56315;-33.902;151.160;2023-06-26T13:14:39;12.40;99.90
44647;DHT22;56315;-33.902;151.160;2023-06-26T13:17:06;12.40;99.90
44647;DHT22;56315;-33.902;151.160;2023-06-26T13:19:34;12.50;99.90
44647;DHT22;56315;-33.902;151.160;2023-06-26T13:22:01;12.60;99.90
44647;DHT22;56315;-33.902;151.160;2023-06-26T13:24:28;12.60;99.90
44647;DHT22;56315;-33.902;151.160;2023-06-26T13:26:56;12.60;99.90
44647;DHT22;56315;-33.902;151.160;2023-06-26T13:29:23;12.70;99.90
44647;DHT22;56315;-33.902;151.160;2023-06-26T13:31:51;12.50;99.90
44647;DHT22;56315;-33.902;151.160;2023-06-26T13:34:22;12.30;99.90
44647;DHT22;56315;-33.902;151.160;2023-06-26T13:36:50;12.20;99.90
44647;DHT22;56315;-33.902;151.160;2023-06-26T13:39:18;12.20;99.90
44647;DHT22;56315;-33.902;151.160;2023-06-26T13:41:45;12.30;99.90
44647;DHT22;56315;-33.902;151.160;2023-06-26T13:44:13;12.30;99.90
44647;DHT22;56315;-33.902;151.160;2023-06-26T13:46:40;12.40;99.90
44647;DHT22;56315;-33.902;151.160;2023-06-26T13:49:07;12.30;99.90
44647;DHT22;56315;-33.902;151.160;2023-06-26T13:51:35;12.10;99.90
44647;DHT22;56315;-33.902;151.160;2023-06-26T13:54:02;11.90;99.90
44647;DHT22;56315;-33.902;151.160;2023-06-26T13:56:29;11.80;99.90
44647;DHT22;56315;-33.902;151.160;2023-06-26T13:58:57;11.70;99.90
44647;DHT22;56315;-33.902;151.160;2023-06-26T14:01:25;11.50;99.90
44647;DHT22;56315;-33.902;151.160;2023-06-26T14:03:52;11.30;99.90
44647;DHT22;56315;-33.902;151.160;2023-06-26T14:06:19;11.30;99.90
44647;DHT22;56315;-33.902;151.160;2023-06-26T14:08:47;11.10;99.90
44647;DHT22;56315;-33.902;151.160;2023-06-26T14:11:15;11.20;99.90
44647;DHT22;56315;-33.902;151.160;2023-06-26T14:13:43;11.10;99.90
44647;DHT22;56315;-33.902;151.160;2023-06-26T14:16:10;11.00;99.90
44647;DHT22;56315;-33.902;151.160;2023-06-26T14:18:38;10.90;99.90
44647;DHT22;56315;-33.902;151.160;2023-06-26T14:21:05;10.90;99.90
44647;DHT22;56315;-33.902;151.160;2023-06-26T14:23:32;11.00;99.90
44647;DHT22;56315;-33.902;151.160;2023-06-26T14:26:00;10.90;99.90
44647;DHT22;56315;-33.902;151.160;2023-06-26T14:28:27;10.80;99.90
44647;DHT22;56315;-33.902;151.160;2023-06-26T14:30:54;10.90;99.90
44647;DHT22;56315;-33.902;151.160;2023-06-26T14:33:21;10.80;99.90
44647;DHT22;56315;-33.902;151.160;2023-06-26T14:35:48;11.00;99.90
44647;DHT22;56315;-33.902;151.160;2023-06-26T14:38:16;11.00;99.90
44647;DHT22;56315;-33.902;151.160;2023-06-26T14:40:43;11.00;99.90
44647;DHT22;56315;-33.902;151.160;2023-06-26T14:43:10;10.80;99.90
44647;DHT22;56315;-33.902;151.160;2023-06-26T14:45:38;10.70;99.90
44647;DHT22;56315;-33.902;151.160;2023-06-26T14:48:05;10.70;99.90
44647;DHT22;56315;-33.902;151.160;2023-06-26T14:50:32;10.70;99.90
44647;DHT22;56315;-33.902;151.160;2023-06-26T14:52:59;10.60;99.90
44647;DHT22;56315;-33.902;151.160;2023-06-26T14:55:27;10.60;99.90
44647;DHT22;56315;-33.902;151.160;2023-06-26T14:57:54;10.60;99.90
44647;DHT22;56315;-33.902;151.160;2023-06-26T15:00:21;10.70;99.90
44647;DHT22;56315;-33.902;151.160;2023-06-26T15:02:49;10.70;99.90
44647;DHT22;56315;-33.902;151.160;2023-06-26T15:05:20;10.70;99.90
44647;DHT22;56315;-33.902;151.160;2023-06-26T15:07:48;10.80;99.90
44647;DHT22;56315;-33.902;151.160;2023-06-26T15:10:16;10.80;99.90
44647;DHT22;56315;-33.902;151.160;2023-06-26T15:12:43;10.80;99.90
44647;DHT22;56315;-33.902;151.160;2023-06-26T15:15:10;10.70;99.90
44647;DHT22;56315;-33.902;151.160;2023-06-26T15:17:38;10.80;99.90
44647;DHT22;56315;-33.902;151.160;2023-06-26T15:20:06;10.70;99.90
44647;DHT22;56315;-33.902;151.160;2023-06-26T15:22:33;10.80;99.90